Time;durP1;ratioP1;P1;durP2;ratioP2;P2;SDS_P1;SDS_P2;PMS_P1;PMS_P2;Temp;Humidity;BMP_temperature;BMP_pressure;BME280_temperature;BME280_humidity;BME280_pressure;Samples;Min_cycle;Max_cycle;Signal;HPM_P1;HPM_P2
2022/02/05 00:01:47;;;;;;;;;;;10.00;99.90;;;;;;5126760;27;19915;-70
2022/02/05 00:04:15;;;;;;;;;;;10.00;99.90;;;;;;5123845;27;19957;-71
2022/02/05 00:06:44;;;;;;;;;;;10.00;99.90;;;;;;5131545;27;19980;-72
2022/02/05 00:43:52;;;;;;;;;;;10.10;99.90;;;;;;5128172;27;19919;-70
2022/02/05 00:46:19;;;;;;;;;;;10.10;99.90;;;;;;5130465;27;19916;-72
2022/02/05 00:48:45;;;;;;;;;;;10.00;99.90;;;;;;5125177;27;19912;-71
2022/02/05 00:51:26;;;;;;;;;;;9.90;99.90;;;;;;5122250;27;19957;-71
2022/02/05 00:54:04;;;;;;;;;;;9.90;99.90;;;;;;5126912;27;20002;-72
2022/02/05 00:59:14;;;;;;;;;;;9.90;99.90;;;;;;5130139;27;19911;-70
2022/02/05 01:01:41;;;;;;;;;;;10.00;99.90;;;;;;5119522;27;19912;-70
2022/02/05 01:04:06;;;;;;;;;;;10.10;99.90;;;;;;5124027;27;19934;-73
2022/02/05 01:06:32;;;;;;;;;;;10.10;99.90;;;;;;5118336;27;19915;-71
2022/02/05 01:08:58;;;;;;;;;;;10.00;99.90;;;;;;5116095;27;19912;-71
2022/02/05 01:11:24;;;;;;;;;;;10.00;99.90;;;;;;5122975;27;20014;-70
2022/02/05 01:13:50;;;;;;;;;;;10.00;99.90;;;;;;5126464;27;20395;-71
2022/02/05 01:16:31;;;;;;;;;;;10.00;99.90;;;;;;5122002;27;20377;-71
2022/02/05 01:18:57;;;;;;;;;;;10.00;99.90;;;;;;5127239;27;19911;-73
2022/02/05 01:24:02;;;;;;;;;;;9.90;99.90;;;;;;5123849;27;19923;-70
2022/02/05 01:26:35;;;;;;;;;;;9.90;99.90;;;;;;5122128;27;20388;-71
2022/02/05 01:29:02;;;;;;;;;;;9.90;99.90;;;;;;5124647;27;19911;-74
2022/02/05 01:31:35;;;;;;;;;;;9.90;99.90;;;;;;5127654;27;19919;-70
2022/02/05 01:39:26;;;;;;;;;;;9.80;99.90;;;;;;5126606;27;20369;-71
2022/02/05 01:48:44;;;;;;;;;;;10.00;99.90;;;;;;5130286;27;19919;-70
2022/02/05 01:50:39;;;;;;;;;;;9.90;99.90;;;;;;5128068;27;19983;-69
2022/02/05 01:53:16;;;;;;;;;;;9.90;99.90;;;;;;5123520;27;19911;-70
2022/02/05 02:11:44;;;;;;;;;;;10.00;99.90;;;;;;5122080;27;19957;-72
2022/02/05 02:22:06;;;;;;;;;;;9.90;99.90;;;;;;5128172;27;19918;-73
2022/02/05 02:24:46;;;;;;;;;;;9.90;99.90;;;;;;5126943;27;19954;-71
2022/02/05 02:32:10;;;;;;;;;;;10.10;99.90;;;;;;5120944;28;19926;-72
2022/02/05 02:34:41;;;;;;;;;;;10.00;99.90;;;;;;5115517;28;19916;-71
2022/02/05 02:37:07;;;;;;;;;;;10.10;99.90;;;;;;5122525;28;19923;-71
2022/02/05 02:39:44;;;;;;;;;;;10.00;99.90;;;;;;5121390;28;19912;-71
2022/02/05 02:42:12;;;;;;;;;;;10.00;99.90;;;;;;5126932;28;19980;-73
2022/02/05 02:44:37;;;;;;;;;;;10.00;99.90;;;;;;5123700;27;19921;-71
2022/02/05 02:47:03;;;;;;;;;;;10.00;99.90;;;;;;5128413;28;19915;-71
2022/02/05 02:57:49;;;;;;;;;;;10.20;99.90;;;;;;5125190;27;19919;-71
2022/02/05 03:00:14;;;;;;;;;;;10.10;99.90;;;;;;5124963;27;20124;-73
2022/02/05 03:02:40;;;;;;;;;;;10.10;99.90;;;;;;5126782;28;19960;-71
2022/02/05 03:05:06;;;;;;;;;;;10.10;99.90;;;;;;5115934;28;20357;-72
2022/02/05 03:07:31;;;;;;;;;;;10.00;99.90;;;;;;5114077;28;20006;-71
2022/02/05 03:09:57;;;;;;;;;;;9.90;99.90;;;;;;5113931;28;19951;-71
2022/02/05 03:12:23;;;;;;;;;;;9.90;99.90;;;;;;5115797;28;19962;-71
2022/02/05 03:14:49;;;;;;;;;;;10.00;99.90;;;;;;5116979;27;19912;-70
2022/02/05 03:17:19;;;;;;;;;;;10.00;99.90;;;;;;5116991;28;19927;-72
2022/02/05 03:19:52;;;;;;;;;;;9.90;99.90;;;;;;5112320;28;19927;-74
2022/02/05 03:22:19;;;;;;;;;;;10.00;99.90;;;;;;5117409;28;19919;-72
2022/02/05 03:24:45;;;;;;;;;;;10.00;99.90;;;;;;5118290;27;20031;-73
2022/02/05 03:27:12;;;;;;;;;;;10.10;99.90;;;;;;5123235;27;19965;-73
2022/02/05 03:29:40;;;;;;;;;;;10.10;99.90;;;;;;5116898;27;19920;-71
2022/02/05 03:32:06;;;;;;;;;;;10.10;99.90;;;;;;5117000;27;19911;-70
2022/02/05 03:34:31;;;;;;;;;;;10.10;99.90;;;;;;5120805;27;19922;-73
2022/02/05 03:36:57;;;;;;;;;;;10.10;99.90;;;;;;5120280;27;19911;-70
2022/02/05 03:39:23;;;;;;;;;;;10.00;99.90;;;;;;5120258;27;19920;-70
2022/02/05 03:41:49;;;;;;;;;;;10.00;99.90;;;;;;5121426;27;19930;-71
2022/02/05 03:44:14;;;;;;;;;;;10.10;99.90;;;;;;5118103;27;20014;-70
2022/02/05 03:46:40;;;;;;;;;;;10.10;99.90;;;;;;5116043;27;20063;-71
2022/02/05 03:49:06;;;;;;;;;;;10.20;99.90;;;;;;5115596;27;19923;-71
2022/02/05 03:51:31;;;;;;;;;;;10.10;99.90;;;;;;5119126;27;19964;-70
2022/02/05 03:53:57;;;;;;;;;;;10.10;99.90;;;;;;5117205;27;19918;-72
2022/02/05 03:56:23;;;;;;;;;;;10.10;99.90;;;;;;5112416;27;19919;-70
2022/02/05 03:58:48;;;;;;;;;;;10.00;99.90;;;;;;5116842;27;20595;-71
2022/02/05 04:01:14;;;;;;;;;;;10.10;99.90;;;;;;5120614;27;19919;-70
2022/02/05 04:03:39;;;;;;;;;;;10.00;99.90;;;;;;5116452;27;19955;-74
2022/02/05 04:06:05;;;;;;;;;;;9.90;99.90;;;;;;5119328;27;20006;-70
2022/02/05 04:08:32;;;;;;;;;;;9.90;99.90;;;;;;5131077;27;19912;-71
2022/02/05 04:11:05;;;;;;;;;;;9.80;99.90;;;;;;5118606;27;20384;-71
2022/02/05 04:16:24;;;;;;;;;;;9.90;99.90;;;;;;5126982;27;19918;-70
2022/02/05 04:18:49;;;;;;;;;;;9.90;99.90;;;;;;5126734;27;19911;-70
2022/02/05 04:21:15;;;;;;;;;;;9.90;99.90;;;;;;5127271;27;19923;-73
2022/02/05 04:23:40;;;;;;;;;;;9.90;99.90;;;;;;5125865;27;19911;-72
2022/02/05 04:26:06;;;;;;;;;;;10.00;99.90;;;;;;5122176;27;20275;-71
2022/02/05 04:28:33;;;;;;;;;;;10.00;99.90;;;;;;5120607;27;19912;-69
2022/02/05 04:30:58;;;;;;;;;;;10.00;99.90;;;;;;5126370;27;19919;-69
2022/02/05 04:33:24;;;;;;;;;;;9.90;99.90;;;;;;5126871;27;19911;-69
2022/02/05 04:35:50;;;;;;;;;;;10.00;99.90;;;;;;5123630;27;20431;-71
2022/02/05 04:38:17;;;;;;;;;;;9.90;99.90;;;;;;5123895;27;20011;-70
2022/02/05 04:40:56;;;;;;;;;;;10.00;99.90;;;;;;5121271;27;19971;-70
2022/02/05 05:01:40;;;;;;;;;;;10.00;99.90;;;;;;5127178;27;19964;-71
2022/02/05 05:09:39;;;;;;;;;;;10.00;99.90;;;;;;5121182;27;20411;-71
2022/02/05 05:13:12;;;;;;;;;;;10.00;99.90;;;;;;5121047;27;20385;-71
2022/02/05 05:20:22;;;;;;;;;;;10.10;99.90;;;;;;5127660;27;19973;-73
2022/02/05 05:22:47;;;;;;;;;;;10.10;99.90;;;;;;5115681;27;19951;-73
2022/02/05 05:25:13;;;;;;;;;;;10.10;99.90;;;;;;5128960;27;20002;-72
2022/02/05 05:27:39;;;;;;;;;;;10.10;99.90;;;;;;5123820;27;20409;-70
2022/02/05 05:30:05;;;;;;;;;;;10.00;99.90;;;;;;5132536;27;19966;-71
2022/02/05 05:32:31;;;;;;;;;;;10.00;99.90;;;;;;5128393;27;19916;-71
2022/02/05 05:34:56;;;;;;;;;;;10.00;99.90;;;;;;5125440;27;19915;-72
2022/02/05 05:37:22;;;;;;;;;;;9.90;99.90;;;;;;5126721;27;20412;-71
2022/02/05 05:39:51;;;;;;;;;;;9.90;99.90;;;;;;5125711;27;19919;-71
2022/02/05 05:42:22;;;;;;;;;;;10.00;99.90;;;;;;5123650;27;19915;-72
2022/02/05 05:45:20;;;;;;;;;;;10.00;99.90;;;;;;5126759;27;20014;-71
2022/02/05 05:48:10;;;;;;;;;;;10.00;99.90;;;;;;5122539;27;19926;-69
2022/02/05 05:53:06;;;;;;;;;;;9.90;99.90;;;;;;5128222;27;20057;-71
2022/02/05 05:55:32;;;;;;;;;;;9.90;99.90;;;;;;5120380;27;19912;-74
2022/02/05 05:57:58;;;;;;;;;;;9.90;99.90;;;;;;5125815;27;19922;-71
2022/02/05 06:00:24;;;;;;;;;;;9.80;99.90;;;;;;5121719;27;19911;-72
2022/02/05 06:02:49;;;;;;;;;;;9.80;99.90;;;;;;5112845;27;20373;-72
2022/02/05 06:05:15;;;;;;;;;;;9.80;99.90;;;;;;5119965;27;19962;-71
2022/02/05 06:07:41;;;;;;;;;;;9.80;99.90;;;;;;5128433;27;19915;-72
2022/02/05 06:10:06;;;;;;;;;;;9.80;99.90;;;;;;5124226;27;20413;-70
2022/02/05 06:12:32;;;;;;;;;;;9.80;99.90;;;;;;5127659;27;19942;-72
2022/02/05 06:15:07;;;;;;;;;;;9.80;99.90;;;;;;5119190;27;21505;-74
2022/02/05 06:17:33;;;;;;;;;;;9.80;99.90;;;;;;5117165;27;19951;-72
2022/02/05 06:19:59;;;;;;;;;;;9.80;99.90;;;;;;5115424;27;19966;-71
2022/02/05 06:22:24;;;;;;;;;;;9.80;99.90;;;;;;5115136;27;19934;-72
2022/02/05 06:24:50;;;;;;;;;;;9.80;99.90;;;;;;5120985;27;20014;-69
2022/02/05 06:27:16;;;;;;;;;;;9.90;99.90;;;;;;5115859;27;20365;-70
2022/02/05 06:29:41;;;;;;;;;;;10.00;99.90;;;;;;5123493;28;20345;-75
2022/02/05 06:32:07;;;;;;;;;;;10.00;99.90;;;;;;5123402;28;19911;-72
2022/02/05 06:34:33;;;;;;;;;;;10.00;99.90;;;;;;5126097;27;19911;-73
2022/02/05 06:36:59;;;;;;;;;;;10.00;99.90;;;;;;5129673;27;19915;-72
2022/02/05 06:39:24;;;;;;;;;;;10.00;99.90;;;;;;5120919;27;19912;-76
2022/02/05 06:41:50;;;;;;;;;;;10.00;99.90;;;;;;5130374;28;19930;-72
2022/02/05 06:44:16;;;;;;;;;;;10.00;99.90;;;;;;5122990;28;20445;-73
2022/02/05 06:46:42;;;;;;;;;;;9.90;99.90;;;;;;5115990;27;19916;-71
2022/02/05 06:49:07;;;;;;;;;;;10.00;99.90;;;;;;5115849;27;19924;-71
2022/02/05 06:51:33;;;;;;;;;;;10.00;99.90;;;;;;5119090;28;20053;-71
2022/02/05 06:54:00;;;;;;;;;;;10.00;99.90;;;;;;5127353;28;20021;-74
2022/02/05 06:56:25;;;;;;;;;;;10.00;99.90;;;;;;5116177;27;19926;-74
2022/02/05 06:58:51;;;;;;;;;;;10.00;99.90;;;;;;5119718;27;20300;-71
2022/02/05 07:01:16;;;;;;;;;;;10.00;99.90;;;;;;5128713;27;19918;-73
2022/02/05 07:03:42;;;;;;;;;;;10.20;99.90;;;;;;5130602;27;19931;-74
2022/02/05 07:06:08;;;;;;;;;;;10.20;99.90;;;;;;5124972;27;20334;-71
2022/02/05 07:08:33;;;;;;;;;;;10.20;99.90;;;;;;5134546;27;20002;-70
2022/02/05 07:10:59;;;;;;;;;;;10.20;99.90;;;;;;5125277;27;19915;-73
2022/02/05 07:13:25;;;;;;;;;;;10.10;99.90;;;;;;5129666;27;19912;-73
2022/02/05 07:20:53;;;;;;;;;;;10.10;99.90;;;;;;5129003;27;19911;-71
2022/02/05 07:23:36;;;;;;;;;;;10.20;99.90;;;;;;5129020;27;19923;-67
2022/02/05 07:31:30;;;;;;;;;;;10.10;99.90;;;;;;5131864;27;19932;-66
2022/02/05 07:33:56;;;;;;;;;;;10.00;99.90;;;;;;5129222;27;20307;-68
2022/02/05 07:36:23;;;;;;;;;;;10.00;99.90;;;;;;5123925;27;19915;-67
2022/02/05 07:38:48;;;;;;;;;;;10.10;99.90;;;;;;5129574;27;20373;-67
2022/02/05 07:41:14;;;;;;;;;;;10.10;99.90;;;;;;5130383;27;19917;-68
2022/02/05 07:43:39;;;;;;;;;;;10.10;99.90;;;;;;5128699;27;19990;-67
2022/02/05 07:46:06;;;;;;;;;;;10.00;99.90;;;;;;5126964;27;19920;-68
2022/02/05 07:48:32;;;;;;;;;;;9.90;99.90;;;;;;5126028;27;20018;-68
2022/02/05 07:51:00;;;;;;;;;;;9.90;99.90;;;;;;5129940;27;19915;-67
2022/02/05 07:53:30;;;;;;;;;;;9.80;99.90;;;;;;5123419;27;20006;-68
2022/02/05 07:55:56;;;;;;;;;;;9.80;99.90;;;;;;5119114;27;19912;-66
2022/02/05 07:58:24;;;;;;;;;;;9.90;99.90;;;;;;5129672;27;19912;-66
2022/02/05 08:00:50;;;;;;;;;;;9.90;99.90;;;;;;5127608;27;20390;-67
2022/02/05 08:03:16;;;;;;;;;;;10.00;99.90;;;;;;5130983;27;19930;-69
2022/02/05 08:05:42;;;;;;;;;;;9.90;99.90;;;;;;5125158;27;19916;-68
2022/02/05 08:08:12;;;;;;;;;;;10.00;99.90;;;;;;5132486;27;19979;-67
2022/02/05 08:10:47;;;;;;;;;;;10.00;99.90;;;;;;5125696;27;19912;-67
2022/02/05 08:13:12;;;;;;;;;;;10.00;99.90;;;;;;5115958;27;20296;-69
2022/02/05 08:15:38;;;;;;;;;;;10.00;99.90;;;;;;5130493;27;19911;-69
2022/02/05 08:18:04;;;;;;;;;;;10.10;99.90;;;;;;5130539;27;19934;-67
2022/02/05 08:20:29;;;;;;;;;;;10.20;99.90;;;;;;5133901;27;19915;-67
2022/02/05 08:22:55;;;;;;;;;;;10.30;99.90;;;;;;5131679;27;20011;-67
2022/02/05 08:25:21;;;;;;;;;;;10.50;99.90;;;;;;5127019;27;20369;-67
2022/02/05 08:27:47;;;;;;;;;;;10.50;99.90;;;;;;5119792;27;19975;-68
2022/02/05 08:30:13;;;;;;;;;;;10.50;99.90;;;;;;5120596;27;20304;-65
2022/02/05 08:32:40;;;;;;;;;;;10.50;99.90;;;;;;5118131;27;20015;-66
2022/02/05 08:35:06;;;;;;;;;;;10.50;99.90;;;;;;5116409;27;19934;-66
2022/02/05 08:37:37;;;;;;;;;;;10.60;99.90;;;;;;5129861;27;20292;-67
2022/02/05 08:40:03;;;;;;;;;;;10.60;99.90;;;;;;5130485;27;20437;-68
2022/02/05 08:42:28;;;;;;;;;;;10.60;99.90;;;;;;5123377;27;20412;-68
2022/02/05 08:44:54;;;;;;;;;;;10.70;99.90;;;;;;5126209;27;20010;-67
2022/02/05 08:47:21;;;;;;;;;;;10.80;99.90;;;;;;5124403;27;19963;-68
2022/02/05 08:49:48;;;;;;;;;;;11.00;99.90;;;;;;5122040;27;19912;-69
2022/02/05 08:52:15;;;;;;;;;;;11.20;99.90;;;;;;5132061;27;19918;-67
2022/02/05 08:54:41;;;;;;;;;;;11.30;99.90;;;;;;5128292;27;19911;-68
2022/02/05 08:57:07;;;;;;;;;;;11.40;99.90;;;;;;5127899;27;20012;-69
2022/02/05 08:59:48;;;;;;;;;;;11.60;99.90;;;;;;5134080;27;20283;-68
2022/02/05 09:02:26;;;;;;;;;;;11.70;99.90;;;;;;5121246;27;19912;-70
2022/02/05 09:07:20;;;;;;;;;;;11.90;99.90;;;;;;5127142;27;21579;-69
2022/02/05 09:15:00;;;;;;;;;;;12.20;99.90;;;;;;5134384;27;19930;-65
2022/02/05 09:17:26;;;;;;;;;;;12.10;99.90;;;;;;5135767;27;19967;-65
2022/02/05 09:19:52;;;;;;;;;;;12.10;99.90;;;;;;5131907;27;20592;-66
2022/02/05 09:22:17;;;;;;;;;;;12.10;99.90;;;;;;5124056;27;19959;-67
2022/02/05 09:24:43;;;;;;;;;;;12.00;99.90;;;;;;5130218;27;19918;-66
2022/02/05 09:27:12;;;;;;;;;;;12.00;99.90;;;;;;5134925;27;20384;-64
2022/02/05 09:30:02;;;;;;;;;;;12.10;99.90;;;;;;5110864;27;19911;-67
2022/02/05 09:32:24;;;;;;;;;;;12.20;99.90;;;;;;5131095;27;19912;-70
2022/02/05 09:34:50;;;;;;;;;;;12.30;99.90;;;;;;5131910;27;20071;-69
2022/02/05 09:37:16;;;;;;;;;;;12.40;99.90;;;;;;5130381;27;19916;-67
2022/02/05 09:39:43;;;;;;;;;;;12.40;99.90;;;;;;5134699;27;19907;-68
2022/02/05 09:42:13;;;;;;;;;;;12.50;99.90;;;;;;5130195;27;19927;-69
2022/02/05 09:44:39;;;;;;;;;;;12.60;99.90;;;;;;5128908;27;19994;-68
2022/02/05 09:47:04;;;;;;;;;;;12.70;99.90;;;;;;5125873;27;19953;-68
2022/02/05 09:49:30;;;;;;;;;;;12.70;99.90;;;;;;5135819;27;19933;-67
2022/02/05 09:52:07;;;;;;;;;;;12.60;99.90;;;;;;5124471;27;19915;-69
2022/02/05 09:54:34;;;;;;;;;;;12.60;99.90;;;;;;5125355;27;19964;-69
2022/02/05 09:56:59;;;;;;;;;;;12.50;99.90;;;;;;5129853;27;19968;-69
2022/02/05 09:59:25;;;;;;;;;;;12.40;99.90;;;;;;5114200;27;20293;-69
2022/02/05 10:02:10;;;;;;;;;;;12.50;99.90;;;;;;5131024;27;19908;-67
2022/02/05 10:04:57;;;;;;;;;;;12.50;99.90;;;;;;5126021;27;19972;-68
2022/02/05 10:07:22;;;;;;;;;;;12.60;99.90;;;;;;5130392;27;19919;-69
2022/02/05 10:10:14;;;;;;;;;;;12.70;99.90;;;;;;5119892;27;19919;-69
2022/02/05 10:12:40;;;;;;;;;;;12.60;99.90;;;;;;5126080;27;19911;-70
2022/02/05 10:15:06;;;;;;;;;;;12.60;99.90;;;;;;5122432;27;19908;-68
2022/02/05 10:17:37;;;;;;;;;;;12.50;99.90;;;;;;5128324;27;19911;-68
2022/02/05 10:20:03;;;;;;;;;;;12.40;99.90;;;;;;5130316;27;19911;-69
2022/02/05 10:22:49;;;;;;;;;;;12.40;99.90;;;;;;5130775;27;19915;-69
2022/02/05 10:25:24;;;;;;;;;;;12.30;99.90;;;;;;5122511;27;19912;-69
2022/02/05 10:27:50;;;;;;;;;;;12.20;99.90;;;;;;5130234;27;19928;-69
2022/02/05 10:30:24;;;;;;;;;;;12.20;99.90;;;;;;5127497;28;19908;-69
2022/02/05 10:33:04;;;;;;;;;;;12.30;99.90;;;;;;5127105;27;19915;-69
2022/02/05 10:35:41;;;;;;;;;;;12.30;99.90;;;;;;5128452;27;19915;-70
2022/02/05 10:43:07;;;;;;;;;;;12.70;99.90;;;;;;5116977;27;19912;-68
2022/02/05 10:45:40;;;;;;;;;;;12.80;99.90;;;;;;5126558;27;19916;-70
2022/02/05 10:48:06;;;;;;;;;;;12.90;99.90;;;;;;5130901;27;19915;-68
2022/02/05 10:50:35;;;;;;;;;;;12.90;99.90;;;;;;5127099;27;20254;-69
2022/02/05 10:53:06;;;;;;;;;;;13.00;99.90;;;;;;5130455;27;19912;-70
2022/02/05 10:55:40;;;;;;;;;;;13.20;99.90;;;;;;5134822;27;19908;-70
2022/02/05 10:58:17;;;;;;;;;;;13.30;99.90;;;;;;5127516;27;19962;-70
2022/02/05 11:05:57;;;;;;;;;;;13.00;99.90;;;;;;5127974;27;20021;-69
2022/02/05 11:08:25;;;;;;;;;;;12.80;99.90;;;;;;5131789;27;19934;-68
2022/02/05 11:18:58;;;;;;;;;;;12.60;99.90;;;;;;5135596;27;19936;-70
2022/02/05 11:21:24;;;;;;;;;;;12.50;99.90;;;;;;5135127;27;20391;-69
2022/02/05 11:23:52;;;;;;;;;;;12.40;99.90;;;;;;5136008;27;19911;-68
2022/02/05 11:26:18;;;;;;;;;;;12.40;99.90;;;;;;5134736;27;19926;-67
2022/02/05 11:28:45;;;;;;;;;;;12.40;99.90;;;;;;5134269;27;19912;-68
2022/02/05 11:31:13;;;;;;;;;;;12.40;99.90;;;;;;5118322;27;20405;-68
2022/02/05 11:33:39;;;;;;;;;;;12.30;99.90;;;;;;5134299;27;19911;-68
2022/02/05 11:38:42;;;;;;;;;;;12.40;99.90;;;;;;5136690;27;19908;-68
2022/02/05 11:41:23;;;;;;;;;;;12.70;99.90;;;;;;5133042;27;19912;-68
2022/02/05 11:44:09;;;;;;;;;;;12.70;99.90;;;;;;5129071;27;20396;-69
2022/02/05 11:46:34;;;;;;;;;;;12.60;99.90;;;;;;5140515;27;19916;-68
2022/02/05 11:49:04;;;;;;;;;;;12.70;99.90;;;;;;5133087;27;19979;-67
2022/02/05 11:51:45;;;;;;;;;;;12.60;99.90;;;;;;5132079;27;19923;-68
2022/02/05 11:54:15;;;;;;;;;;;12.60;99.90;;;;;;5131131;27;20395;-70
2022/02/05 11:59:23;;;;;;;;;;;12.50;99.90;;;;;;5131952;27;19916;-69
2022/02/05 12:01:49;;;;;;;;;;;12.40;99.90;;;;;;5132285;27;19939;-67
2022/02/05 12:04:17;;;;;;;;;;;12.50;99.90;;;;;;5132798;27;19966;-69
2022/02/05 12:06:59;;;;;;;;;;;12.60;99.90;;;;;;5130727;27;19922;-68
2022/02/05 12:09:35;;;;;;;;;;;12.40;99.90;;;;;;5134222;27;19915;-67
2022/02/05 12:12:19;;;;;;;;;;;12.30;99.90;;;;;;5135297;27;19912;-68
2022/02/05 12:15:05;;;;;;;;;;;12.00;99.90;;;;;;5133479;27;20399;-67
2022/02/05 12:17:52;;;;;;;;;;;11.70;99.90;;;;;;5107769;27;20280;-70
2022/02/05 12:20:23;;;;;;;;;;;11.50;99.90;;;;;;5131963;27;20353;-68
2022/02/05 12:22:58;;;;;;;;;;;11.40;99.90;;;;;;5120767;27;20460;-67
2022/02/05 12:25:24;;;;;;;;;;;11.50;99.90;;;;;;5131606;27;19925;-68
2022/02/05 12:27:50;;;;;;;;;;;11.60;99.90;;;;;;5121123;27;20010;-69
2022/02/05 12:30:29;;;;;;;;;;;11.70;99.90;;;;;;5138213;27;20015;-69
2022/02/05 12:32:55;;;;;;;;;;;11.80;99.90;;;;;;5125690;27;19912;-66
2022/02/05 12:35:20;;;;;;;;;;;11.80;99.90;;;;;;5124721;27;19923;-67
2022/02/05 12:37:46;;;;;;;;;;;11.80;99.90;;;;;;5128619;27;19918;-65
2022/02/05 12:40:11;;;;;;;;;;;12.00;99.90;;;;;;5126655;27;19958;-65
2022/02/05 12:42:39;;;;;;;;;;;12.20;99.90;;;;;;5129674;27;19911;-65
2022/02/05 12:45:06;;;;;;;;;;;12.20;99.90;;;;;;5123180;27;19970;-64
2022/02/05 12:47:37;;;;;;;;;;;12.30;99.90;;;;;;5121913;27;19919;-67
2022/02/05 12:50:10;;;;;;;;;;;12.20;99.90;;;;;;5125234;27;19951;-68
2022/02/05 12:52:36;;;;;;;;;;;12.30;99.90;;;;;;5128477;27;19919;-68
2022/02/05 12:55:02;;;;;;;;;;;12.30;99.90;;;;;;5117739;27;19912;-67
2022/02/05 12:57:29;;;;;;;;;;;12.10;99.90;;;;;;5123660;27;20297;-70
2022/02/05 12:59:54;;;;;;;;;;;12.20;99.90;;;;;;5128377;27;19968;-66
2022/02/05 13:02:22;;;;;;;;;;;12.10;99.90;;;;;;5125085;27;19916;-66
2022/02/05 13:04:50;;;;;;;;;;;12.00;99.90;;;;;;5132802;27;20009;-67
2022/02/05 13:07:18;;;;;;;;;;;11.50;99.90;;;;;;5127692;27;19919;-67
2022/02/05 13:12:42;;;;;;;;;;;11.50;99.90;;;;;;5128251;27;19911;-67
2022/02/05 13:34:06;;;;;;;;;;;12.10;99.90;;;;;;5131257;27;19918;-69
2022/02/05 13:36:42;;;;;;;;;;;12.20;99.90;;;;;;5129332;27;20003;-68
2022/02/05 13:42:01;;;;;;;;;;;12.40;99.90;;;;;;5122230;27;20353;-68
2022/02/05 13:45:10;;;;;;;;;;;12.40;99.90;;;;;;5123601;27;19953;-69
2022/02/05 13:47:44;;;;;;;;;;;12.40;99.90;;;;;;5074805;27;19915;-70
2022/02/05 13:50:11;;;;;;;;;;;12.50;99.90;;;;;;5123315;27;19938;-67
2022/02/05 13:52:40;;;;;;;;;;;12.50;99.90;;;;;;5128957;27;19954;-67
2022/02/05 13:55:09;;;;;;;;;;;12.50;99.90;;;;;;5126260;27;20006;-69
2022/02/05 13:57:35;;;;;;;;;;;12.60;99.90;;;;;;5127736;27;19955;-68
2022/02/05 14:00:00;;;;;;;;;;;12.60;99.90;;;;;;5125508;27;19957;-67
2022/02/05 14:02:35;;;;;;;;;;;12.50;99.90;;;;;;5124548;27;19926;-67
2022/02/05 14:05:11;;;;;;;;;;;12.50;99.90;;;;;;5121679;27;19919;-68
2022/02/05 14:07:43;;;;;;;;;;;12.40;99.90;;;;;;5125629;27;19974;-67
2022/02/05 14:10:09;;;;;;;;;;;12.40;99.90;;;;;;5130134;27;19937;-68
2022/02/05 14:12:45;;;;;;;;;;;12.40;99.90;;;;;;5125363;27;19919;-67
2022/02/05 14:15:12;;;;;;;;;;;12.30;99.90;;;;;;5126101;27;19918;-67
2022/02/05 14:17:38;;;;;;;;;;;12.30;99.90;;;;;;5128807;27;19965;-66
2022/02/05 14:20:05;;;;;;;;;;;12.10;99.90;;;;;;5129321;27;20348;-67
2022/02/05 14:22:34;;;;;;;;;;;12.10;99.90;;;;;;5124826;27;19911;-69
2022/02/05 14:25:27;;;;;;;;;;;12.00;99.90;;;;;;5129445;27;19919;-67
2022/02/05 14:28:14;;;;;;;;;;;11.90;99.90;;;;;;5127152;27;20783;-68
2022/02/05 14:30:44;;;;;;;;;;;12.00;99.90;;;;;;5126158;27;20037;-67
2022/02/05 14:33:10;;;;;;;;;;;12.10;99.90;;;;;;5129752;28;19999;-67
2022/02/05 14:36:00;;;;;;;;;;;12.20;99.90;;;;;;5127025;28;20097;-68
2022/02/05 14:41:10;;;;;;;;;;;12.20;99.90;;;;;;5128491;28;19918;-68
2022/02/05 14:43:36;;;;;;;;;;;12.10;99.90;;;;;;5128642;27;19911;-66
2022/02/05 14:46:01;;;;;;;;;;;12.20;99.90;;;;;;5121473;28;20112;-67
2022/02/05 14:48:27;;;;;;;;;;;12.20;99.90;;;;;;5130284;28;20026;-67
2022/02/05 14:50:53;;;;;;;;;;;12.30;99.90;;;;;;5124767;27;19923;-67
2022/02/05 14:53:19;;;;;;;;;;;12.30;99.90;;;;;;5121815;28;19927;-68
2022/02/05 14:55:45;;;;;;;;;;;12.30;99.90;;;;;;5129972;28;19908;-67
2022/02/05 14:58:10;;;;;;;;;;;12.40;99.90;;;;;;5123511;28;19959;-66
2022/02/05 15:00:36;;;;;;;;;;;12.30;99.90;;;;;;5123799;28;19912;-67
2022/02/05 15:03:03;;;;;;;;;;;12.30;99.90;;;;;;5128196;28;19954;-67
2022/02/05 15:05:28;;;;;;;;;;;12.50;99.90;;;;;;5131307;28;19923;-66
2022/02/05 15:07:54;;;;;;;;;;;12.50;99.90;;;;;;5126630;27;19998;-66
2022/02/05 15:10:19;;;;;;;;;;;12.40;99.90;;;;;;5131930;27;19936;-68
2022/02/05 15:12:46;;;;;;;;;;;12.50;99.90;;;;;;5129196;27;19923;-68
2022/02/05 15:15:18;;;;;;;;;;;12.50;99.90;;;;;;5126683;28;20006;-68
2022/02/05 15:17:45;;;;;;;;;;;12.60;99.90;;;;;;5131488;28;19911;-68
2022/02/05 15:20:11;;;;;;;;;;;12.70;99.90;;;;;;5125311;27;19911;-68
2022/02/05 15:22:37;;;;;;;;;;;12.80;99.90;;;;;;5132887;27;19911;-67
2022/02/05 15:25:03;;;;;;;;;;;12.90;99.90;;;;;;5133663;27;19922;-68
2022/02/05 15:27:29;;;;;;;;;;;12.80;99.90;;;;;;5125815;27;19930;-68
2022/02/05 15:29:55;;;;;;;;;;;12.90;99.90;;;;;;5128340;27;20564;-67
2022/02/05 15:32:20;;;;;;;;;;;13.00;99.90;;;;;;5130602;27;19978;-67
2022/02/05 15:34:47;;;;;;;;;;;13.00;99.90;;;;;;5129424;27;19919;-67
2022/02/05 15:37:19;;;;;;;;;;;13.00;99.90;;;;;;5133545;27;19964;-67
2022/02/05 15:45:09;;;;;;;;;;;12.60;99.90;;;;;;5129860;27;19918;-68
2022/02/05 15:47:34;;;;;;;;;;;12.60;99.90;;;;;;5129739;27;20477;-67
2022/02/05 15:50:00;;;;;;;;;;;12.60;99.90;;;;;;5132401;27;20010;-68
2022/02/05 15:52:26;;;;;;;;;;;12.50;99.90;;;;;;5123948;27;19989;-69
2022/02/05 15:54:53;;;;;;;;;;;12.40;99.90;;;;;;5131563;27;19926;-71
2022/02/05 15:57:32;;;;;;;;;;;12.30;99.90;;;;;;5127131;27;19918;-69
2022/02/05 16:00:23;;;;;;;;;;;12.20;99.90;;;;;;5121786;27;19916;-69
2022/02/05 16:02:44;;;;;;;;;;;12.00;99.90;;;;;;5132300;27;19912;-66
2022/02/05 16:05:09;;;;;;;;;;;11.90;99.90;;;;;;5126140;27;19944;-69
2022/02/05 16:07:35;;;;;;;;;;;11.70;99.90;;;;;;5128722;27;19922;-68
2022/02/05 16:10:01;;;;;;;;;;;11.60;99.90;;;;;;5130340;27;19979;-67
2022/02/05 16:12:26;;;;;;;;;;;11.50;99.90;;;;;;5125046;27;19912;-67
2022/02/05 16:14:52;;;;;;;;;;;11.60;99.90;;;;;;5130126;27;19987;-68
2022/02/05 16:17:17;;;;;;;;;;;11.60;99.90;;;;;;5132351;27;20093;-67
2022/02/05 16:19:43;;;;;;;;;;;11.50;99.90;;;;;;5131986;27;19911;-68
2022/02/05 16:22:08;;;;;;;;;;;11.50;99.90;;;;;;5131176;27;20365;-66
2022/02/05 16:24:34;;;;;;;;;;;11.50;99.90;;;;;;5126434;27;19915;-67
2022/02/05 16:27:00;;;;;;;;;;;11.40;99.90;;;;;;5136250;27;19923;-69
2022/02/05 16:29:27;;;;;;;;;;;11.30;99.90;;;;;;5133467;27;19912;-69
2022/02/05 16:31:54;;;;;;;;;;;11.30;99.90;;;;;;5133979;27;20365;-68
2022/02/05 16:34:20;;;;;;;;;;;11.30;99.90;;;;;;5130523;27;19984;-67
2022/02/05 16:36:47;;;;;;;;;;;11.30;99.90;;;;;;5132494;27;20381;-68
2022/02/05 16:39:19;;;;;;;;;;;11.30;99.90;;;;;;5132988;27;19950;-68
2022/02/05 16:41:45;;;;;;;;;;;11.30;99.90;;;;;;5130686;27;19920;-67
2022/02/05 16:44:11;;;;;;;;;;;11.40;99.90;;;;;;5132818;27;19934;-67
2022/02/05 16:46:40;;;;;;;;;;;11.30;99.90;;;;;;5127226;27;19924;-68
2022/02/05 16:49:07;;;;;;;;;;;11.20;99.90;;;;;;5135726;27;19912;-67
2022/02/05 16:51:34;;;;;;;;;;;11.00;99.90;;;;;;5130468;27;19947;-68
2022/02/05 16:54:01;;;;;;;;;;;11.00;99.90;;;;;;5131357;27;20424;-69
2022/02/05 16:56:31;;;;;;;;;;;10.90;99.90;;;;;;5126613;27;19933;-69
2022/02/05 16:58:57;;;;;;;;;;;10.80;99.90;;;;;;5136622;27;20269;-68
2022/02/05 17:01:24;;;;;;;;;;;10.80;99.90;;;;;;5132543;27;19912;-70
2022/02/05 17:03:49;;;;;;;;;;;10.80;99.90;;;;;;5132059;27;19915;-68
2022/02/05 17:06:15;;;;;;;;;;;10.80;99.90;;;;;;5127336;27;19915;-69
2022/02/05 17:08:41;;;;;;;;;;;10.90;99.90;;;;;;5128478;27;20377;-68
2022/02/05 17:11:07;;;;;;;;;;;10.80;99.90;;;;;;5129904;27;19933;-67
2022/02/05 17:13:33;;;;;;;;;;;10.80;99.90;;;;;;5127335;27;19911;-68
2022/02/05 17:16:00;;;;;;;;;;;10.80;99.90;;;;;;5124261;27;19967;-68
2022/02/05 17:18:28;;;;;;;;;;;10.80;99.90;;;;;;5126904;27;19956;-67
2022/02/05 17:20:55;;;;;;;;;;;10.80;99.90;;;;;;5131066;27;20373;-68
2022/02/05 17:23:26;;;;;;;;;;;10.80;99.90;;;;;;5125662;27;21832;-68
2022/02/05 17:25:51;;;;;;;;;;;10.80;99.90;;;;;;5127273;27;19916;-70
2022/02/05 17:28:17;;;;;;;;;;;10.90;99.90;;;;;;5122548;27;19919;-68
2022/02/05 17:30:43;;;;;;;;;;;11.00;99.90;;;;;;5127566;27;19911;-67
2022/02/05 17:33:10;;;;;;;;;;;11.10;99.90;;;;;;5130100;27;19924;-68
2022/02/05 17:35:41;;;;;;;;;;;11.20;99.90;;;;;;5129732;27;19911;-68
2022/02/05 17:38:06;;;;;;;;;;;11.20;99.90;;;;;;5130425;27;19911;-68
2022/02/05 17:40:32;;;;;;;;;;;11.10;99.90;;;;;;5128576;27;20022;-69
2022/02/05 17:42:58;;;;;;;;;;;11.10;99.90;;;;;;5124803;27;19911;-68
2022/02/05 17:45:24;;;;;;;;;;;11.20;99.90;;;;;;5129802;27;19975;-68